Main page
METAR-TAF:

METAR-TAF

Airports :

Edinburgh Airport

Edinburgh, Scotland

latitude: 55-57N, longitude: 003-21W, elevation: 41 m

Current weather observation

The report was made 24 minutes ago, at 21:50 UTC
Wind 4 kt from the West/Southwest
Temperature -4°C
Humidity 93%
Pressure 996 hPa
Visibility 10 km or more
Few clouds at a height of 900 ft

METAR: EGPH 222150Z 24004KT 9999 FEW009 M04/M05 Q0996

Time: 22:14 (22:14 UTC)

Forecast

The report was made 5 hours and 11 minutes ago, at 17:03 UTC
Forecast valid from 22 at 18 UTC to 23 at 18 UTC
Wind 6 kt from the West/Southwest
Visibility 10 km or more
Few clouds at a height of 2000 ft

TAF: EGPH 221703Z 2218/2318 24006KT 9999 FEW020

Weather observations and forecasts of more than 4000 airports (METAR and TAF reports).

The available stations are represented by yellow and red dots on the map.

Hover mouse over dot to see the name of the station.

Then click to see weather observations and forecasts.

To change the map : click on the green buttons with a black cross to zoom in, on the green button with a dash to zoom out, or on the green arrows for adjacent maps.


METAR-TAF: